sensor_id;sensor_type;location;lat;lon;timestamp;P1;durP1;ratioP1;P2;durP2;ratioP2
11651;SDS011;5882;48.818;9.114;2023-04-24T00:02:39;0.88;;;0.73;;
11651;SDS011;5882;48.818;9.114;2023-04-24T00:05:24;1.30;;;0.77;;
11651;SDS011;5882;48.818;9.114;2023-04-24T00:08:11;2.75;;;0.80;;
11651;SDS011;5882;48.818;9.114;2023-04-24T00:10:59;0.80;;;0.80;;
11651;SDS011;5882;48.818;9.114;2023-04-24T00:13:44;0.70;;;0.70;;
11651;SDS011;5882;48.818;9.114;2023-04-24T00:16:29;0.63;;;0.63;;
11651;SDS011;5882;48.818;9.114;2023-04-24T00:19:14;0.80;;;0.80;;
11651;SDS011;5882;48.818;9.114;2023-04-24T00:21:59;0.70;;;0.70;;
11651;SDS011;5882;48.818;9.114;2023-04-24T00:24:46;0.88;;;0.77;;
11651;SDS011;5882;48.818;9.114;2023-04-24T00:27:31;0.77;;;0.77;;
11651;SDS011;5882;48.818;9.114;2023-04-24T00:30:16;0.90;;;0.90;;
11651;SDS011;5882;48.818;9.114;2023-04-24T00:33:02;0.80;;;0.80;;
11651;SDS011;5882;48.818;9.114;2023-04-24T00:35:47;0.73;;;0.73;;
11651;SDS011;5882;48.818;9.114;2023-04-24T00:38:32;0.70;;;0.70;;
11651;SDS011;5882;48.818;9.114;2023-04-24T00:41:18;0.70;;;0.70;;
11651;SDS011;5882;48.818;9.114;2023-04-24T00:44:04;0.80;;;0.80;;
11651;SDS011;5882;48.818;9.114;2023-04-24T00:46:49;0.85;;;0.85;;
11651;SDS011;5882;48.818;9.114;2023-04-24T00:49:37;0.70;;;0.70;;
11651;SDS011;5882;48.818;9.114;2023-04-24T00:52:23;0.70;;;0.70;;
11651;SDS011;5882;48.818;9.114;2023-04-24T00:55:09;0.80;;;0.80;;
11651;SDS011;5882;48.818;9.114;2023-04-24T00:57:55;0.77;;;0.77;;
11651;SDS011;5882;48.818;9.114;2023-04-24T01:00:40;0.80;;;0.80;;
11651;SDS011;5882;48.818;9.114;2023-04-24T01:03:26;0.80;;;0.80;;
11651;SDS011;5882;48.818;9.114;2023-04-24T01:06:12;0.70;;;0.70;;
11651;SDS011;5882;48.818;9.114;2023-04-24T01:08:58;0.80;;;0.80;;
11651;SDS011;5882;48.818;9.114;2023-04-24T01:11:43;0.73;;;0.73;;
11651;SDS011;5882;48.818;9.114;2023-04-24T01:14:30;0.80;;;0.80;;
11651;SDS011;5882;48.818;9.114;2023-04-24T01:17:15;0.70;;;0.70;;
11651;SDS011;5882;48.818;9.114;2023-04-24T01:20:01;0.90;;;0.90;;
11651;SDS011;5882;48.818;9.114;2023-04-24T01:22:50;0.88;;;0.88;;
11651;SDS011;5882;48.818;9.114;2023-04-24T01:25:36;0.70;;;0.70;;
11651;SDS011;5882;48.818;9.114;2023-04-24T01:28:21;0.70;;;0.70;;
11651;SDS011;5882;48.818;9.114;2023-04-24T01:31:07;0.65;;;0.65;;
11651;SDS011;5882;48.818;9.114;2023-04-24T01:33:52;1.10;;;0.80;;
11651;SDS011;5882;48.818;9.114;2023-04-24T01:36:37;1.35;;;0.77;;
11651;SDS011;5882;48.818;9.114;2023-04-24T01:39:24;1.23;;;0.70;;
11651;SDS011;5882;48.818;9.114;2023-04-24T01:42:09;1.70;;;0.75;;
11651;SDS011;5882;48.818;9.114;2023-04-24T01:44:58;0.90;;;0.90;;
11651;SDS011;5882;48.818;9.114;2023-04-24T01:47:43;0.80;;;0.80;;
11651;SDS011;5882;48.818;9.114;2023-04-24T01:50:29;0.70;;;0.70;;
11651;SDS011;5882;48.818;9.114;2023-04-24T01:53:15;0.60;;;0.60;;
11651;SDS011;5882;48.818;9.114;2023-04-24T01:56:02;0.70;;;0.70;;
11651;SDS011;5882;48.818;9.114;2023-04-24T01:58:47;1.45;;;0.88;;
11651;SDS011;5882;48.818;9.114;2023-04-24T02:01:34;0.80;;;0.80;;
11651;SDS011;5882;48.818;9.114;2023-04-24T02:04:20;1.85;;;0.82;;
11651;SDS011;5882;48.818;9.114;2023-04-24T02:07:07;0.70;;;0.70;;
11651;SDS011;5882;48.818;9.114;2023-04-24T02:09:52;0.70;;;0.70;;
11651;SDS011;5882;48.818;9.114;2023-04-24T02:12:40;0.95;;;0.85;;
11651;SDS011;5882;48.818;9.114;2023-04-24T02:15:25;0.73;;;0.73;;
11651;SDS011;5882;48.818;9.114;2023-04-24T02:18:10;1.23;;;1.00;;
11651;SDS011;5882;48.818;9.114;2023-04-24T02:20:56;0.95;;;0.80;;
11651;SDS011;5882;48.818;9.114;2023-04-24T02:23:41;0.80;;;0.80;;
11651;SDS011;5882;48.818;9.114;2023-04-24T02:26:27;0.77;;;0.77;;
11651;SDS011;5882;48.818;9.114;2023-04-24T02:29:15;0.77;;;0.77;;
11651;SDS011;5882;48.818;9.114;2023-04-24T02:32:00;0.80;;;0.80;;
11651;SDS011;5882;48.818;9.114;2023-04-24T02:34:45;0.85;;;0.85;;
11651;SDS011;5882;48.818;9.114;2023-04-24T02:37:30;0.70;;;0.70;;
11651;SDS011;5882;48.818;9.114;2023-04-24T02:40:16;0.90;;;0.90;;
11651;SDS011;5882;48.818;9.114;2023-04-24T02:43:01;0.70;;;0.70;;
11651;SDS011;5882;48.818;9.114;2023-04-24T02:45:48;1.85;;;0.80;;
11651;SDS011;5882;48.818;9.114;2023-04-24T02:48:33;0.75;;;0.75;;
11651;SDS011;5882;48.818;9.114;2023-04-24T02:51:18;0.90;;;0.88;;
11651;SDS011;5882;48.818;9.114;2023-04-24T02:54:03;0.80;;;0.80;;
11651;SDS011;5882;48.818;9.114;2023-04-24T02:56:48;0.70;;;0.70;;
11651;SDS011;5882;48.818;9.114;2023-04-24T02:59:34;1.85;;;0.70;;
11651;SDS011;5882;48.818;9.114;2023-04-24T03:02:21;0.60;;;0.60;;
11651;SDS011;5882;48.818;9.114;2023-04-24T03:05:06;1.08;;;0.80;;
11651;SDS011;5882;48.818;9.114;2023-04-24T03:07:52;1.10;;;1.10;;
11651;SDS011;5882;48.818;9.114;2023-04-24T03:10:38;0.80;;;0.80;;
11651;SDS011;5882;48.818;9.114;2023-04-24T03:13:25;0.80;;;0.80;;
11651;SDS011;5882;48.818;9.114;2023-04-24T03:16:11;0.80;;;0.80;;
11651;SDS011;5882;48.818;9.114;2023-04-24T03:18:58;0.70;;;0.70;;
11651;SDS011;5882;48.818;9.114;2023-04-24T03:21:43;0.70;;;0.70;;
11651;SDS011;5882;48.818;9.114;2023-04-24T03:24:28;0.70;;;0.70;;
11651;SDS011;5882;48.818;9.114;2023-04-24T03:27:14;0.80;;;0.80;;
11651;SDS011;5882;48.818;9.114;2023-04-24T03:30:00;0.80;;;0.80;;
11651;SDS011;5882;48.818;9.114;2023-04-24T03:32:45;0.80;;;0.80;;
11651;SDS011;5882;48.818;9.114;2023-04-24T03:35:32;0.70;;;0.70;;
11651;SDS011;5882;48.818;9.114;2023-04-24T03:38:17;0.82;;;0.82;;
11651;SDS011;5882;48.818;9.114;2023-04-24T03:41:02;0.70;;;0.70;;
11651;SDS011;5882;48.818;9.114;2023-04-24T03:43:47;0.63;;;0.63;;
11651;SDS011;5882;48.818;9.114;2023-04-24T03:46:32;0.73;;;0.73;;
11651;SDS011;5882;48.818;9.114;2023-04-24T03:49:17;0.63;;;0.63;;
11651;SDS011;5882;48.818;9.114;2023-04-24T03:52:03;0.80;;;0.80;;
11651;SDS011;5882;48.818;9.114;2023-04-24T03:54:48;0.70;;;0.70;;
11651;SDS011;5882;48.818;9.114;2023-04-24T03:57:33;0.80;;;0.80;;
11651;SDS011;5882;48.818;9.114;2023-04-24T04:00:18;0.93;;;0.80;;
11651;SDS011;5882;48.818;9.114;2023-04-24T04:03:04;0.70;;;0.70;;
11651;SDS011;5882;48.818;9.114;2023-04-24T04:05:49;0.90;;;0.90;;
11651;SDS011;5882;48.818;9.114;2023-04-24T04:08:36;0.68;;;0.68;;
11651;SDS011;5882;48.818;9.114;2023-04-24T04:11:21;0.85;;;0.70;;
11651;SDS011;5882;48.818;9.114;2023-04-24T04:14:06;0.70;;;0.70;;
11651;SDS011;5882;48.818;9.114;2023-04-24T04:16:51;0.75;;;0.75;;
11651;SDS011;5882;48.818;9.114;2023-04-24T04:19:36;0.60;;;0.60;;
11651;SDS011;5882;48.818;9.114;2023-04-24T04:22:21;0.93;;;0.88;;
11651;SDS011;5882;48.818;9.114;2023-04-24T04:25:07;0.85;;;0.85;;
11651;SDS011;5882;48.818;9.114;2023-04-24T04:27:53;0.98;;;0.90;;
11651;SDS011;5882;48.818;9.114;2023-04-24T04:30:38;0.80;;;0.80;;
11651;SDS011;5882;48.818;9.114;2023-04-24T04:33:24;0.90;;;0.90;;
11651;SDS011;5882;48.818;9.114;2023-04-24T04:36:09;0.98;;;0.98;;
11651;SDS011;5882;48.818;9.114;2023-04-24T04:38:54;0.95;;;0.90;;
11651;SDS011;5882;48.818;9.114;2023-04-24T04:41:41;0.98;;;0.98;;
11651;SDS011;5882;48.818;9.114;2023-04-24T04:44:27;1.00;;;1.00;;
11651;SDS011;5882;48.818;9.114;2023-04-24T04:47:12;0.85;;;0.85;;
11651;SDS011;5882;48.818;9.114;2023-04-24T04:49:58;0.80;;;0.80;;
11651;SDS011;5882;48.818;9.114;2023-04-24T04:52:43;1.00;;;1.00;;
11651;SDS011;5882;48.818;9.114;2023-04-24T04:55:28;0.93;;;0.93;;
11651;SDS011;5882;48.818;9.114;2023-04-24T04:58:15;1.00;;;1.00;;
11651;SDS011;5882;48.818;9.114;2023-04-24T05:01:00;0.77;;;0.77;;
11651;SDS011;5882;48.818;9.114;2023-04-24T05:03:46;0.82;;;0.82;;
11651;SDS011;5882;48.818;9.114;2023-04-24T05:06:31;1.67;;;0.90;;
11651;SDS011;5882;48.818;9.114;2023-04-24T05:09:16;0.90;;;0.90;;
11651;SDS011;5882;48.818;9.114;2023-04-24T05:12:01;1.10;;;1.00;;
11651;SDS011;5882;48.818;9.114;2023-04-24T05:14:47;0.80;;;0.80;;
11651;SDS011;5882;48.818;9.114;2023-04-24T05:17:33;1.67;;;0.90;;
11651;SDS011;5882;48.818;9.114;2023-04-24T05:20:18;0.90;;;0.90;;
11651;SDS011;5882;48.818;9.114;2023-04-24T05:23:03;0.80;;;0.80;;
11651;SDS011;5882;48.818;9.114;2023-04-24T05:25:48;0.85;;;0.85;;
11651;SDS011;5882;48.818;9.114;2023-04-24T05:28:33;0.90;;;0.90;;
11651;SDS011;5882;48.818;9.114;2023-04-24T05:31:21;1.00;;;1.00;;
11651;SDS011;5882;48.818;9.114;2023-04-24T05:34:06;0.80;;;0.80;;
11651;SDS011;5882;48.818;9.114;2023-04-24T05:36:51;0.80;;;0.80;;
11651;SDS011;5882;48.818;9.114;2023-04-24T05:39:36;1.58;;;0.90;;
11651;SDS011;5882;48.818;9.114;2023-04-24T05:42:21;2.33;;;1.00;;
11651;SDS011;5882;48.818;9.114;2023-04-24T05:45:07;1.05;;;1.05;;
11651;SDS011;5882;48.818;9.114;2023-04-24T05:47:54;1.70;;;1.60;;
11651;SDS011;5882;48.818;9.114;2023-04-24T05:50:39;1.63;;;1.50;;
11651;SDS011;5882;48.818;9.114;2023-04-24T05:53:25;2.25;;;1.10;;
11651;SDS011;5882;48.818;9.114;2023-04-24T05:56:10;1.20;;;1.10;;
11651;SDS011;5882;48.818;9.114;2023-04-24T05:58:55;1.13;;;1.10;;
11651;SDS011;5882;48.818;9.114;2023-04-24T06:01:40;0.95;;;0.95;;
11651;SDS011;5882;48.818;9.114;2023-04-24T06:07:48;1.40;;;1.20;;
11651;SDS011;5882;48.818;9.114;2023-04-24T06:10:34;1.10;;;1.10;;
11651;SDS011;5882;48.818;9.114;2023-04-24T06:13:19;1.20;;;1.10;;
11651;SDS011;5882;48.818;9.114;2023-04-24T06:16:04;1.15;;;1.00;;
11651;SDS011;5882;48.818;9.114;2023-04-24T06:18:49;1.20;;;1.10;;
11651;SDS011;5882;48.818;9.114;2023-04-24T06:21:37;2.35;;;1.27;;
11651;SDS011;5882;48.818;9.114;2023-04-24T06:24:24;1.70;;;1.25;;
11651;SDS011;5882;48.818;9.114;2023-04-24T06:27:13;1.40;;;1.30;;
11651;SDS011;5882;48.818;9.114;2023-04-24T06:30:00;1.10;;;1.10;;
11651;SDS011;5882;48.818;9.114;2023-04-24T06:32:45;0.82;;;0.82;;
11651;SDS011;5882;48.818;9.114;2023-04-24T06:35:32;1.00;;;0.90;;
11651;SDS011;5882;48.818;9.114;2023-04-24T06:38:23;0.90;;;0.90;;
11651;SDS011;5882;48.818;9.114;2023-04-24T06:41:10;1.20;;;1.15;;
11651;SDS011;5882;48.818;9.114;2023-04-24T06:43:56;1.30;;;1.20;;
11651;SDS011;5882;48.818;9.114;2023-04-24T06:46:42;1.13;;;1.05;;
11651;SDS011;5882;48.818;9.114;2023-04-24T06:49:27;1.15;;;1.05;;
11651;SDS011;5882;48.818;9.114;2023-04-24T06:52:17;1.90;;;1.30;;
11651;SDS011;5882;48.818;9.114;2023-04-24T07:07:53;1.60;;;1.50;;
11651;SDS011;5882;48.818;9.114;2023-04-24T07:10:38;1.20;;;1.10;;
11651;SDS011;5882;48.818;9.114;2023-04-24T07:13:23;1.25;;;1.10;;
11651;SDS011;5882;48.818;9.114;2023-04-24T07:16:13;1.42;;;1.30;;
11651;SDS011;5882;48.818;9.114;2023-04-24T07:18:58;1.08;;;1.08;;
11651;SDS011;5882;48.818;9.114;2023-04-24T07:21:45;1.23;;;1.13;;
11651;SDS011;5882;48.818;9.114;2023-04-24T07:24:38;1.20;;;1.10;;
11651;SDS011;5882;48.818;9.114;2023-04-24T07:27:30;1.45;;;1.33;;
11651;SDS011;5882;48.818;9.114;2023-04-24T07:30:18;1.42;;;1.15;;
11651;SDS011;5882;48.818;9.114;2023-04-24T07:33:03;1.10;;;1.10;;
11651;SDS011;5882;48.818;9.114;2023-04-24T07:39:23;1.20;;;1.10;;
11651;SDS011;5882;48.818;9.114;2023-04-24T07:42:19;1.38;;;1.27;;
11651;SDS011;5882;48.818;9.114;2023-04-24T07:45:09;1.02;;;1.02;;
11651;SDS011;5882;48.818;9.114;2023-04-24T07:47:54;1.38;;;1.27;;
11651;SDS011;5882;48.818;9.114;2023-04-24T07:50:43;2.78;;;1.15;;
11651;SDS011;5882;48.818;9.114;2023-04-24T07:53:34;1.00;;;1.00;;
11651;SDS011;5882;48.818;9.114;2023-04-24T07:56:25;1.30;;;1.20;;
11651;SDS011;5882;48.818;9.114;2023-04-24T07:59:12;1.50;;;1.27;;
11651;SDS011;5882;48.818;9.114;2023-04-24T08:01:59;2.05;;;1.10;;
11651;SDS011;5882;48.818;9.114;2023-04-24T08:04:48;1.25;;;1.15;;
11651;SDS011;5882;48.818;9.114;2023-04-24T08:07:33;1.00;;;1.00;;
11651;SDS011;5882;48.818;9.114;2023-04-24T08:10:22;1.02;;;1.02;;
11651;SDS011;5882;48.818;9.114;2023-04-24T08:13:07;1.15;;;1.15;;
11651;SDS011;5882;48.818;9.114;2023-04-24T08:15:54;1.00;;;1.00;;
11651;SDS011;5882;48.818;9.114;2023-04-24T08:18:39;1.25;;;1.15;;
11651;SDS011;5882;48.818;9.114;2023-04-24T08:21:24;2.22;;;1.10;;
11651;SDS011;5882;48.818;9.114;2023-04-24T08:24:10;1.25;;;1.15;;
11651;SDS011;5882;48.818;9.114;2023-04-24T08:26:59;1.40;;;1.30;;
11651;SDS011;5882;48.818;9.114;2023-04-24T08:29:53;1.42;;;1.30;;
11651;SDS011;5882;48.818;9.114;2023-04-24T08:32:50;1.33;;;1.25;;
11651;SDS011;5882;48.818;9.114;2023-04-24T08:35:41;1.20;;;1.10;;
11651;SDS011;5882;48.818;9.114;2023-04-24T08:38:27;5.35;;;1.40;;
11651;SDS011;5882;48.818;9.114;2023-04-24T08:41:16;2.30;;;1.08;;
11651;SDS011;5882;48.818;9.114;2023-04-24T08:44:02;1.75;;;1.20;;
11651;SDS011;5882;48.818;9.114;2023-04-24T08:46:48;1.15;;;1.15;;
11651;SDS011;5882;48.818;9.114;2023-04-24T08:49:39;1.30;;;1.20;;
11651;SDS011;5882;48.818;9.114;2023-04-24T08:52:27;1.15;;;1.10;;
11651;SDS011;5882;48.818;9.114;2023-04-24T08:55:15;1.30;;;1.20;;
11651;SDS011;5882;48.818;9.114;2023-04-24T08:58:04;1.30;;;1.20;;
11651;SDS011;5882;48.818;9.114;2023-04-24T09:00:49;1.30;;;1.20;;
11651;SDS011;5882;48.818;9.114;2023-04-24T09:03:35;1.42;;;1.20;;
11651;SDS011;5882;48.818;9.114;2023-04-24T09:06:22;1.10;;;1.10;;
11651;SDS011;5882;48.818;9.114;2023-04-24T09:09:09;1.05;;;1.05;;
11651;SDS011;5882;48.818;9.114;2023-04-24T09:11:55;1.42;;;1.08;;
11651;SDS011;5882;48.818;9.114;2023-04-24T09:14:41;1.15;;;1.10;;
11651;SDS011;5882;48.818;9.114;2023-04-24T09:17:28;1.00;;;1.00;;
11651;SDS011;5882;48.818;9.114;2023-04-24T09:20:14;0.90;;;0.90;;
11651;SDS011;5882;48.818;9.114;2023-04-24T09:23:01;1.48;;;1.23;;
11651;SDS011;5882;48.818;9.114;2023-04-24T09:25:49;1.42;;;1.20;;
11651;SDS011;5882;48.818;9.114;2023-04-24T09:28:39;0.90;;;0.90;;
11651;SDS011;5882;48.818;9.114;2023-04-24T09:31:26;1.30;;;1.20;;
11651;SDS011;5882;48.818;9.114;2023-04-24T09:34:11;1.27;;;1.17;;
11651;SDS011;5882;48.818;9.114;2023-04-24T09:36:57;0.98;;;0.98;;
11651;SDS011;5882;48.818;9.114;2023-04-24T09:39:43;1.23;;;1.13;;
11651;SDS011;5882;48.818;9.114;2023-04-24T09:42:29;1.20;;;1.10;;
11651;SDS011;5882;48.818;9.114;2023-04-24T09:45:15;1.25;;;1.20;;
11651;SDS011;5882;48.818;9.114;2023-04-24T09:48:01;1.05;;;1.05;;
11651;SDS011;5882;48.818;9.114;2023-04-24T09:50:48;1.20;;;1.10;;
11651;SDS011;5882;48.818;9.114;2023-04-24T09:53:33;1.10;;;0.90;;
11651;SDS011;5882;48.818;9.114;2023-04-24T09:56:24;1.23;;;1.13;;
11651;SDS011;5882;48.818;9.114;2023-04-24T09:59:10;0.90;;;0.90;;
11651;SDS011;5882;48.818;9.114;2023-04-24T10:01:55;3.42;;;1.15;;
11651;SDS011;5882;48.818;9.114;2023-04-24T10:04:53;1.45;;;1.05;;
11651;SDS011;5882;48.818;9.114;2023-04-24T10:07:39;1.00;;;1.00;;
11651;SDS011;5882;48.818;9.114;2023-04-24T10:10:28;1.20;;;1.10;;
11651;SDS011;5882;48.818;9.114;2023-04-24T10:13:15;1.10;;;1.10;;
11651;SDS011;5882;48.818;9.114;2023-04-24T10:16:00;1.27;;;1.17;;
11651;SDS011;5882;48.818;9.114;2023-04-24T10:18:45;1.30;;;1.20;;
11651;SDS011;5882;48.818;9.114;2023-04-24T10:21:31;1.30;;;1.20;;
11651;SDS011;5882;48.818;9.114;2023-04-24T10:24:20;1.20;;;1.10;;
11651;SDS011;5882;48.818;9.114;2023-04-24T10:27:05;0.90;;;0.90;;
11651;SDS011;5882;48.818;9.114;2023-04-24T10:29:52;1.20;;;1.10;;
11651;SDS011;5882;48.818;9.114;2023-04-24T10:32:38;1.00;;;1.00;;
11651;SDS011;5882;48.818;9.114;2023-04-24T10:35:23;1.25;;;1.10;;
11651;SDS011;5882;48.818;9.114;2023-04-24T10:38:15;1.25;;;1.15;;
11651;SDS011;5882;48.818;9.114;2023-04-24T10:41:08;1.10;;;1.00;;
11651;SDS011;5882;48.818;9.114;2023-04-24T10:44:04;2.53;;;1.58;;
11651;SDS011;5882;48.818;9.114;2023-04-24T10:46:54;1.35;;;1.20;;
11651;SDS011;5882;48.818;9.114;2023-04-24T10:49:39;1.00;;;1.00;;
11651;SDS011;5882;48.818;9.114;2023-04-24T10:52:37;1.20;;;1.00;;
11651;SDS011;5882;48.818;9.114;2023-04-24T10:55:39;1.17;;;1.08;;
11651;SDS011;5882;48.818;9.114;2023-04-24T10:58:26;1.20;;;1.10;;
11651;SDS011;5882;48.818;9.114;2023-04-24T11:01:24;1.20;;;1.10;;
11651;SDS011;5882;48.818;9.114;2023-04-24T11:04:11;0.98;;;0.98;;
11651;SDS011;5882;48.818;9.114;2023-04-24T11:06:57;1.45;;;1.23;;
11651;SDS011;5882;48.818;9.114;2023-04-24T11:09:42;1.20;;;1.10;;
11651;SDS011;5882;48.818;9.114;2023-04-24T11:12:28;1.13;;;1.08;;
11651;SDS011;5882;48.818;9.114;2023-04-24T11:15:13;1.30;;;1.20;;
11651;SDS011;5882;48.818;9.114;2023-04-24T11:18:03;1.00;;;1.00;;
11651;SDS011;5882;48.818;9.114;2023-04-24T11:20:50;1.27;;;1.17;;
11651;SDS011;5882;48.818;9.114;2023-04-24T11:23:37;1.50;;;1.40;;
11651;SDS011;5882;48.818;9.114;2023-04-24T11:26:25;1.35;;;1.23;;
11651;SDS011;5882;48.818;9.114;2023-04-24T11:29:16;1.40;;;1.30;;
11651;SDS011;5882;48.818;9.114;2023-04-24T11:32:13;1.15;;;1.05;;
11651;SDS011;5882;48.818;9.114;2023-04-24T11:35:01;2.22;;;1.10;;
11651;SDS011;5882;48.818;9.114;2023-04-24T11:37:49;1.20;;;1.10;;
11651;SDS011;5882;48.818;9.114;2023-04-24T11:40:34;1.38;;;1.27;;
11651;SDS011;5882;48.818;9.114;2023-04-24T11:43:20;0.90;;;0.90;;
11651;SDS011;5882;48.818;9.114;2023-04-24T11:46:06;1.00;;;0.90;;
11651;SDS011;5882;48.818;9.114;2023-04-24T11:48:51;1.00;;;1.00;;
11651;SDS011;5882;48.818;9.114;2023-04-24T11:51:36;0.95;;;0.95;;
11651;SDS011;5882;48.818;9.114;2023-04-24T11:54:23;1.02;;;1.02;;
11651;SDS011;5882;48.818;9.114;2023-04-24T11:57:08;1.30;;;1.20;;
11651;SDS011;5882;48.818;9.114;2023-04-24T11:59:54;1.30;;;1.20;;
11651;SDS011;5882;48.818;9.114;2023-04-24T12:02:39;1.27;;;1.20;;
11651;SDS011;5882;48.818;9.114;2023-04-24T12:05:25;1.02;;;1.02;;
11651;SDS011;5882;48.818;9.114;2023-04-24T12:08:11;1.23;;;1.13;;
11651;SDS011;5882;48.818;9.114;2023-04-24T12:10:58;1.40;;;1.30;;
11651;SDS011;5882;48.818;9.114;2023-04-24T12:13:47;1.13;;;1.02;;
11651;SDS011;5882;48.818;9.114;2023-04-24T12:16:34;1.38;;;1.27;;
11651;SDS011;5882;48.818;9.114;2023-04-24T12:19:20;1.10;;;1.10;;
11651;SDS011;5882;48.818;9.114;2023-04-24T12:22:06;1.20;;;1.15;;
11651;SDS011;5882;48.818;9.114;2023-04-24T12:24:58;1.10;;;1.10;;
11651;SDS011;5882;48.818;9.114;2023-04-24T12:27:46;1.15;;;1.10;;
11651;SDS011;5882;48.818;9.114;2023-04-24T12:30:32;1.15;;;1.05;;
11651;SDS011;5882;48.818;9.114;2023-04-24T12:33:17;1.17;;;1.00;;
11651;SDS011;5882;48.818;9.114;2023-04-24T12:36:03;1.23;;;1.13;;
11651;SDS011;5882;48.818;9.114;2023-04-24T12:38:52;1.30;;;1.20;;
11651;SDS011;5882;48.818;9.114;2023-04-24T12:41:37;1.10;;;1.10;;
11651;SDS011;5882;48.818;9.114;2023-04-24T12:44:29;1.00;;;1.00;;
11651;SDS011;5882;48.818;9.114;2023-04-24T12:47:15;1.58;;;1.10;;
11651;SDS011;5882;48.818;9.114;2023-04-24T12:50:07;1.15;;;1.15;;
11651;SDS011;5882;48.818;9.114;2023-04-24T12:52:54;1.42;;;1.20;;
11651;SDS011;5882;48.818;9.114;2023-04-24T12:55:39;1.30;;;1.10;;
11651;SDS011;5882;48.818;9.114;2023-04-24T12:58:28;1.27;;;1.10;;
11651;SDS011;5882;48.818;9.114;2023-04-24T13:01:14;2.22;;;1.20;;
11651;SDS011;5882;48.818;9.114;2023-04-24T13:04:00;2.08;;;1.10;;
11651;SDS011;5882;48.818;9.114;2023-04-24T13:06:45;1.20;;;1.10;;
11651;SDS011;5882;48.818;9.114;2023-04-24T13:09:30;1.10;;;1.10;;
11651;SDS011;5882;48.818;9.114;2023-04-24T13:12:15;1.52;;;1.42;;
11651;SDS011;5882;48.818;9.114;2023-04-24T13:15:01;1.45;;;1.30;;
11651;SDS011;5882;48.818;9.114;2023-04-24T13:17:48;1.50;;;1.40;;
11651;SDS011;5882;48.818;9.114;2023-04-24T13:20:33;2.63;;;1.35;;
11651;SDS011;5882;48.818;9.114;2023-04-24T13:23:19;1.60;;;1.50;;
11651;SDS011;5882;48.818;9.114;2023-04-24T13:26:04;1.60;;;1.50;;
11651;SDS011;5882;48.818;9.114;2023-04-24T13:28:49;1.58;;;1.48;;
11651;SDS011;5882;48.818;9.114;2023-04-24T13:31:35;2.00;;;1.42;;
11651;SDS011;5882;48.818;9.114;2023-04-24T13:34:24;1.20;;;1.10;;
11651;SDS011;5882;48.818;9.114;2023-04-24T13:37:10;1.40;;;1.30;;
11651;SDS011;5882;48.818;9.114;2023-04-24T13:39:55;1.30;;;1.20;;
11651;SDS011;5882;48.818;9.114;2023-04-24T13:42:41;1.00;;;1.00;;
11651;SDS011;5882;48.818;9.114;2023-04-24T13:45:26;1.45;;;1.35;;
11651;SDS011;5882;48.818;9.114;2023-04-24T13:48:13;1.40;;;1.30;;
11651;SDS011;5882;48.818;9.114;2023-04-24T13:51:02;1.30;;;1.20;;
11651;SDS011;5882;48.818;9.114;2023-04-24T13:53:48;1.10;;;1.10;;
11651;SDS011;5882;48.818;9.114;2023-04-24T13:56:33;1.20;;;1.10;;
11651;SDS011;5882;48.818;9.114;2023-04-24T13:59:19;1.25;;;1.15;;
11651;SDS011;5882;48.818;9.114;2023-04-24T14:02:04;0.98;;;0.98;;
11651;SDS011;5882;48.818;9.114;2023-04-24T14:04:49;1.10;;;1.10;;
11651;SDS011;5882;48.818;9.114;2023-04-24T14:07:36;1.73;;;1.15;;
11651;SDS011;5882;48.818;9.114;2023-04-24T14:10:33;1.13;;;1.13;;
11651;SDS011;5882;48.818;9.114;2023-04-24T14:13:19;1.15;;;1.15;;
11651;SDS011;5882;48.818;9.114;2023-04-24T14:16:08;1.20;;;1.10;;
11651;SDS011;5882;48.818;9.114;2023-04-24T14:19:02;1.30;;;1.20;;
11651;SDS011;5882;48.818;9.114;2023-04-24T14:21:52;1.40;;;1.30;;
11651;SDS011;5882;48.818;9.114;2023-04-24T14:24:38;1.40;;;1.20;;
11651;SDS011;5882;48.818;9.114;2023-04-24T14:27:23;1.27;;;1.17;;
11651;SDS011;5882;48.818;9.114;2023-04-24T14:30:09;1.20;;;1.10;;
11651;SDS011;5882;48.818;9.114;2023-04-24T14:32:56;2.13;;;1.40;;
11651;SDS011;5882;48.818;9.114;2023-04-24T14:35:42;1.33;;;1.20;;
11651;SDS011;5882;48.818;9.114;2023-04-24T14:38:27;1.52;;;1.42;;
11651;SDS011;5882;48.818;9.114;2023-04-24T14:41:14;1.33;;;1.13;;
11651;SDS011;5882;48.818;9.114;2023-04-24T14:43:59;1.20;;;1.10;;
11651;SDS011;5882;48.818;9.114;2023-04-24T14:46:45;1.13;;;1.10;;
11651;SDS011;5882;48.818;9.114;2023-04-24T14:49:30;2.05;;;1.23;;
11651;SDS011;5882;48.818;9.114;2023-04-24T14:52:15;2.08;;;1.23;;
11651;SDS011;5882;48.818;9.114;2023-04-24T14:55:00;1.00;;;1.00;;
11651;SDS011;5882;48.818;9.114;2023-04-24T14:57:47;1.35;;;1.25;;
11651;SDS011;5882;48.818;9.114;2023-04-24T15:00:33;1.52;;;1.42;;
11651;SDS011;5882;48.818;9.114;2023-04-24T15:03:18;1.42;;;1.30;;
11651;SDS011;5882;48.818;9.114;2023-04-24T15:06:04;1.27;;;1.17;;
11651;SDS011;5882;48.818;9.114;2023-04-24T15:08:49;1.30;;;1.20;;
11651;SDS011;5882;48.818;9.114;2023-04-24T15:11:37;1.50;;;1.40;;
11651;SDS011;5882;48.818;9.114;2023-04-24T15:14:26;1.90;;;1.20;;
11651;SDS011;5882;48.818;9.114;2023-04-24T15:17:11;1.40;;;1.30;;
11651;SDS011;5882;48.818;9.114;2023-04-24T15:19:56;1.85;;;1.30;;
11651;SDS011;5882;48.818;9.114;2023-04-24T15:22:42;1.60;;;1.50;;
11651;SDS011;5882;48.818;9.114;2023-04-24T15:25:27;1.45;;;1.33;;
11651;SDS011;5882;48.818;9.114;2023-04-24T15:28:13;1.40;;;1.30;;
11651;SDS011;5882;48.818;9.114;2023-04-24T15:31:01;1.50;;;1.40;;
11651;SDS011;5882;48.818;9.114;2023-04-24T15:33:46;1.38;;;1.27;;
11651;SDS011;5882;48.818;9.114;2023-04-24T15:36:33;1.65;;;1.55;;
11651;SDS011;5882;48.818;9.114;2023-04-24T15:39:19;1.60;;;1.50;;
11651;SDS011;5882;48.818;9.114;2023-04-24T15:44:36;1.30;;;1.20;;
11651;SDS011;5882;48.818;9.114;2023-04-24T15:47:22;1.17;;;1.17;;
11651;SDS011;5882;48.818;9.114;2023-04-24T15:50:08;1.25;;;1.15;;
11651;SDS011;5882;48.818;9.114;2023-04-24T15:52:53;1.30;;;1.20;;
11651;SDS011;5882;48.818;9.114;2023-04-24T15:55:38;1.83;;;1.25;;
11651;SDS011;5882;48.818;9.114;2023-04-24T15:58:23;1.38;;;1.27;;
11651;SDS011;5882;48.818;9.114;2023-04-24T16:01:08;1.20;;;1.10;;
11651;SDS011;5882;48.818;9.114;2023-04-24T16:03:55;1.38;;;1.27;;
11651;SDS011;5882;48.818;9.114;2023-04-24T16:06:40;2.97;;;1.30;;
11651;SDS011;5882;48.818;9.114;2023-04-24T16:09:25;1.10;;;1.10;;
11651;SDS011;5882;48.818;9.114;2023-04-24T16:12:13;1.15;;;1.00;;
11651;SDS011;5882;48.818;9.114;2023-04-24T16:14:58;1.20;;;1.15;;
11651;SDS011;5882;48.818;9.114;2023-04-24T16:17:44;1.25;;;1.15;;
11651;SDS011;5882;48.818;9.114;2023-04-24T16:20:30;1.60;;;1.10;;
11651;SDS011;5882;48.818;9.114;2023-04-24T16:23:15;1.33;;;1.23;;
11651;SDS011;5882;48.818;9.114;2023-04-24T16:26:01;1.50;;;1.40;;
11651;SDS011;5882;48.818;9.114;2023-04-24T16:28:46;1.10;;;1.10;;
11651;SDS011;5882;48.818;9.114;2023-04-24T16:31:31;1.60;;;1.50;;
11651;SDS011;5882;48.818;9.114;2023-04-24T16:34:16;2.38;;;1.60;;
11651;SDS011;5882;48.818;9.114;2023-04-24T16:37:02;1.23;;;1.13;;
11651;SDS011;5882;48.818;9.114;2023-04-24T16:39:48;1.35;;;1.25;;
11651;SDS011;5882;48.818;9.114;2023-04-24T16:42:33;1.58;;;1.20;;
11651;SDS011;5882;48.818;9.114;2023-04-24T16:45:18;1.17;;;1.10;;
11651;SDS011;5882;48.818;9.114;2023-04-24T16:48:03;1.15;;;1.05;;
11651;SDS011;5882;48.818;9.114;2023-04-24T16:50:48;1.33;;;1.15;;
11651;SDS011;5882;48.818;9.114;2023-04-24T16:53:34;1.13;;;1.13;;
11651;SDS011;5882;48.818;9.114;2023-04-24T16:56:19;1.00;;;1.00;;
11651;SDS011;5882;48.818;9.114;2023-04-24T16:59:04;1.15;;;1.05;;
11651;SDS011;5882;48.818;9.114;2023-04-24T17:01:50;0.98;;;0.98;;
11651;SDS011;5882;48.818;9.114;2023-04-24T17:04:35;1.42;;;1.10;;
11651;SDS011;5882;48.818;9.114;2023-04-24T17:07:20;1.30;;;1.20;;
11651;SDS011;5882;48.818;9.114;2023-04-24T17:10:07;1.35;;;1.13;;
11651;SDS011;5882;48.818;9.114;2023-04-24T17:12:52;0.90;;;0.90;;
11651;SDS011;5882;48.818;9.114;2023-04-24T17:15:38;1.10;;;1.08;;
11651;SDS011;5882;48.818;9.114;2023-04-24T17:18:23;1.00;;;1.00;;
11651;SDS011;5882;48.818;9.114;2023-04-24T17:21:08;1.17;;;1.08;;